createdAt,value
2023-03-11T00:00:51.166Z,97844.53
2023-03-11T00:03:24.982Z,97840.28
2023-03-11T00:05:56.049Z,97847.19
2023-03-11T00:08:27.104Z,97834.25
2023-03-11T00:11:00.608Z,97829.19
2023-03-11T00:13:30.600Z,97834.38
2023-03-11T00:16:36.139Z,97824.06
2023-03-11T00:19:03.062Z,97830.84
2023-03-11T00:21:32.165Z,97818.97
2023-03-11T00:24:03.752Z,97820.47
2023-03-11T00:26:35.678Z,97820.44
2023-03-11T00:29:02.366Z,97818.63
2023-03-11T00:31:33.887Z,97817.88
2023-03-11T00:34:02.908Z,97835.88
2023-03-11T00:36:33.744Z,97837.38
2023-03-11T00:39:06.897Z,97828.88
2023-03-11T00:41:41.501Z,97813.47
2023-03-11T00:44:12.615Z,97823.63
2023-03-11T00:46:43.952Z,97838.25
2023-03-11T00:49:11.384Z,97836.53
2023-03-11T00:51:40.451Z,97821.84
2023-03-11T00:54:09.367Z,97827.03
2023-03-11T00:56:36.035Z,97832.41
2023-03-11T00:59:07.633Z,97837.38
2023-03-11T01:01:36.566Z,97834.06
2023-03-11T01:04:05.623Z,97833.34
2023-03-11T01:06:43.164Z,97827.47
2023-03-11T01:09:16.956Z,97824.13
2023-03-11T01:11:43.783Z,97820.66
2023-03-11T01:14:12.777Z,97826.66
2023-03-11T01:16:39.434Z,97825.75
2023-03-11T01:19:08.899Z,97820.75
2023-03-11T01:21:40.576Z,97820.81
2023-03-11T01:24:09.788Z,97815.69
2023-03-11T01:26:36.487Z,97820.81
2023-03-11T01:29:03.144Z,97817.38
2023-03-11T01:31:32.197Z,97823.41
2023-03-11T01:34:01.420Z,97821.00
2023-03-11T01:36:32.811Z,97814.28
2023-03-11T01:39:05.917Z,97814.31
2023-03-11T01:41:36.605Z,97819.44
2023-03-11T01:44:05.180Z,97809.22
2023-03-11T01:47:02.285Z,97810.88
2023-03-11T01:49:29.101Z,97814.25
2023-03-11T01:52:00.748Z,97807.53
2023-03-11T01:54:33.123Z,97828.03
2023-03-11T01:57:01.867Z,97821.28
2023-03-11T01:59:36.181Z,97824.66
2023-03-11T02:02:17.734Z,97824.50
2023-03-11T02:04:44.964Z,97842.59
2023-03-11T02:07:16.401Z,97838.41
2023-03-11T02:09:43.080Z,97846.91
2023-03-11T02:12:13.566Z,97843.47
2023-03-11T02:14:44.959Z,97845.03
2023-03-11T02:17:17.587Z,97856.13
2023-03-11T02:20:16.000Z,97849.59
2023-03-11T02:22:45.856Z,97836.72
2023-03-11T02:25:27.435Z,97844.38
2023-03-11T02:27:54.547Z,97844.44
2023-03-11T02:30:23.829Z,97841.84
2023-03-11T02:32:50.779Z,97846.94
2023-03-11T02:35:23.225Z,97845.31
2023-03-11T02:37:52.535Z,97841.00
2023-03-11T02:40:24.511Z,97851.00
2023-03-11T02:42:56.175Z,97846.72
2023-03-11T02:45:26.701Z,97840.69
2023-03-11T02:47:59.252Z,97861.22
2023-03-11T02:50:28.751Z,97861.09
2023-03-11T02:52:55.453Z,97850.88
2023-03-11T02:55:27.293Z,97863.63
2023-03-11T02:57:54.574Z,97827.63
2023-03-11T03:00:21.436Z,97853.38
2023-03-11T03:02:51.855Z,97861.94
2023-03-11T03:05:22.882Z,97887.50
2023-03-11T03:07:54.556Z,97892.66
2023-03-11T03:10:22.349Z,97879.13
2023-03-11T03:12:49.232Z,97878.31
2023-03-11T03:15:18.681Z,97885.94
2023-03-11T03:17:47.707Z,97889.31
2023-03-11T03:20:17.019Z,97895.34
2023-03-11T03:22:44.324Z,97904.81
2023-03-11T03:25:11.273Z,97928.78
2023-03-11T03:27:38.098Z,97900.53
2023-03-11T03:30:05.811Z,97913.47
2023-03-11T03:32:32.840Z,97908.44
2023-03-11T03:35:02.082Z,97901.53
2023-03-11T03:37:29.459Z,97909.34
2023-03-11T03:39:56.248Z,97910.19
2023-03-11T03:42:25.410Z,97905.00
2023-03-11T03:44:54.247Z,97909.50
2023-03-11T03:47:20.918Z,97912.00
2023-03-11T03:49:47.766Z,97930.03
2023-03-11T03:52:15.300Z,97930.88
2023-03-11T03:54:44.750Z,97916.44
2023-03-11T03:57:11.493Z,97923.31
2023-03-11T03:59:38.239Z,97912.19
2023-03-11T04:02:04.927Z,97911.53
2023-03-11T04:04:31.994Z,97934.66
2023-03-11T04:07:02.339Z,97929.44
2023-03-11T04:09:33.682Z,97927.88
2023-03-11T04:12:03.161Z,97915.97
2023-03-11T04:14:34.479Z,97954.34
2023-03-11T04:17:01.184Z,97947.53
2023-03-11T04:19:30.623Z,97960.47
2023-03-11T04:21:57.305Z,97953.59
2023-03-11T04:24:24.000Z,97967.25
2023-03-11T04:26:50.668Z,97970.63
2023-03-11T04:29:17.314Z,97974.13
2023-03-11T04:31:44.082Z,97969.94
2023-03-11T04:34:10.944Z,97969.09
2023-03-11T04:36:37.612Z,97980.94
2023-03-11T04:39:04.489Z,97996.44
2023-03-11T04:41:31.152Z,97966.63
2023-03-11T04:44:02.975Z,97964.16
2023-03-11T04:46:29.643Z,97976.13
2023-03-11T04:48:56.427Z,97987.31
2023-03-11T04:51:23.071Z,97981.38
2023-03-11T04:53:51.974Z,97980.53
2023-03-11T04:56:23.380Z,97998.47
2023-03-11T04:58:50.528Z,97989.09
2023-03-11T05:01:17.212Z,98003.63
2023-03-11T05:03:43.910Z,98007.91
2023-03-11T05:06:10.618Z,97996.88
2023-03-11T05:08:40.632Z,97995.22
2023-03-11T05:11:07.933Z,98021.59
2023-03-11T05:13:36.917Z,98024.13
2023-03-11T05:16:06.333Z,98003.72
2023-03-11T05:18:33.038Z,98008.84
2023-03-11T05:21:02.566Z,98015.63
2023-03-11T05:23:31.958Z,98024.16
2023-03-11T05:26:00.936Z,98015.66
2023-03-11T05:28:30.176Z,98011.38
2023-03-11T05:31:02.200Z,98013.94
2023-03-11T05:33:34.797Z,98028.38
2023-03-11T05:36:09.597Z,98042.84
2023-03-11T05:38:37.261Z,98038.56
2023-03-11T05:41:08.913Z,98044.53
2023-03-11T05:43:35.648Z,98063.25
2023-03-11T05:46:02.375Z,98056.47
2023-03-11T05:48:29.113Z,98074.28
2023-03-11T05:50:55.771Z,98070.78
2023-03-11T05:53:29.635Z,98066.59
2023-03-11T05:56:02.302Z,98078.41
2023-03-11T05:58:33.011Z,98067.41
2023-03-11T06:01:00.315Z,98051.16
2023-03-11T06:03:34.377Z,98073.22
2023-03-11T06:06:01.072Z,98072.41
2023-03-11T06:08:34.525Z,98068.22
2023-03-11T06:11:06.596Z,98077.56
2023-03-11T06:13:34.003Z,98081.78
2023-03-11T06:16:04.067Z,98084.25
2023-03-11T06:18:35.684Z,98085.91
2023-03-11T06:21:09.981Z,98096.09
2023-03-11T06:23:39.190Z,98100.41
2023-03-11T06:26:08.587Z,98119.09
2023-03-11T06:28:35.264Z,98120.75
2023-03-11T06:31:14.579Z,98127.59
2023-03-11T06:33:41.363Z,98139.50
2023-03-11T06:36:11.857Z,98158.13
2023-03-11T06:38:40.828Z,98127.50
2023-03-11T06:41:08.195Z,98158.09
2023-03-11T06:43:37.626Z,98156.41
2023-03-11T06:46:16.301Z,98165.72
2023-03-11T06:48:52.326Z,98167.38
2023-03-11T06:51:22.785Z,98168.28
2023-03-11T06:53:53.542Z,98174.16
2023-03-11T06:56:24.048Z,98159.66
2023-03-11T06:58:51.124Z,98173.31
2023-03-11T07:01:20.892Z,98170.63
2023-03-11T07:03:51.840Z,98181.63
2023-03-11T07:06:23.730Z,98152.75
2023-03-11T07:08:53.809Z,98173.19
2023-03-11T07:11:27.767Z,98165.53
2023-03-11T07:13:57.283Z,98150.19
2023-03-11T07:16:28.860Z,98173.94
2023-03-11T07:18:59.086Z,98142.50
2023-03-11T07:21:31.886Z,98168.84
2023-03-11T07:24:08.365Z,98171.34
2023-03-11T07:26:35.806Z,98191.66
2023-03-11T07:29:02.464Z,98190.88
2023-03-11T07:31:32.186Z,98184.88
2023-03-11T07:34:01.445Z,98210.31
2023-03-11T07:36:30.777Z,98218.81
2023-03-11T07:39:06.559Z,98203.47
2023-03-11T07:41:35.412Z,98200.22
2023-03-11T07:44:03.791Z,98195.34
2023-03-11T07:46:32.513Z,98192.88
2023-03-11T07:48:59.377Z,98182.78
2023-03-11T07:51:29.088Z,98192.13
2023-03-11T07:53:59.897Z,98186.97
2023-03-11T07:56:31.165Z,98203.91
2023-03-11T07:59:01.633Z,98221.81
2023-03-11T08:01:36.262Z,98221.00
2023-03-11T08:04:08.394Z,98238.88
2023-03-11T08:06:36.769Z,98236.31
2023-03-11T08:09:07.106Z,98221.00
2023-03-11T08:11:35.971Z,98206.56
2023-03-11T08:14:05.399Z,98234.75
2023-03-11T08:16:34.366Z,98241.66
2023-03-11T08:19:01.084Z,98255.28
2023-03-11T08:21:32.166Z,98273.28
2023-03-11T08:24:06.610Z,98277.25
2023-03-11T08:26:33.674Z,98282.34
2023-03-11T08:29:27.710Z,98268.88
2023-03-11T08:32:17.384Z,98269.84
2023-03-11T08:34:44.200Z,98246.91
2023-03-11T08:37:46.268Z,98257.88
2023-03-11T08:40:13.726Z,98289.28
2023-03-11T08:42:43.148Z,98284.97
2023-03-11T08:45:18.414Z,98306.22
2023-03-11T08:47:45.235Z,98306.00
2023-03-11T08:50:17.393Z,98306.22
2023-03-11T08:52:56.568Z,98317.34
2023-03-11T08:55:27.774Z,98306.94
2023-03-11T08:57:55.149Z,98331.66
2023-03-11T09:00:24.676Z,98313.09
2023-03-11T09:02:53.941Z,98335.53
2023-03-11T09:05:20.578Z,98302.47
2023-03-11T09:07:49.794Z,98309.28
2023-03-11T09:10:16.562Z,98328.09
2023-03-11T09:12:46.076Z,98305.06
2023-03-11T09:15:12.753Z,98291.19
2023-03-11T09:17:39.457Z,98308.13
2023-03-11T09:20:08.864Z,98316.81
2023-03-11T09:22:37.791Z,98322.59
2023-03-11T09:25:07.766Z,98314.84
2023-03-11T09:27:34.405Z,98323.38
2023-03-11T09:30:05.767Z,98323.28
2023-03-11T09:32:32.452Z,98287.59
2023-03-11T09:35:01.365Z,98304.53
2023-03-11T09:37:33.075Z,98302.81
2023-03-11T09:39:59.731Z,98301.13
2023-03-11T09:42:31.698Z,98309.69
2023-03-11T09:45:06.818Z,98323.34
2023-03-11T09:47:39.401Z,98318.19
2023-03-11T09:50:25.046Z,98314.72
2023-03-11T09:53:26.695Z,98316.47
2023-03-11T09:56:01.399Z,98277.44
2023-03-11T09:58:37.087Z,98282.88
2023-03-11T10:01:19.075Z,98295.50
2023-03-11T10:03:50.258Z,98278.56
2023-03-11T10:06:31.786Z,98310.75
2023-03-11T10:09:00.757Z,98315.81
2023-03-11T10:12:10.902Z,98313.00
2023-03-11T10:20:21.812Z,98291.72
2023-03-11T10:23:00.648Z,98309.47
2023-03-11T10:29:16.720Z,98334.84
2023-03-11T10:32:02.200Z,98356.91
2023-03-11T10:34:44.009Z,98337.28
2023-03-11T10:37:16.551Z,98363.63
2023-03-11T10:39:43.294Z,98362.03
2023-03-11T10:42:23.200Z,98382.38
2023-03-11T10:44:54.628Z,98391.66
2023-03-11T10:47:25.925Z,98393.38
2023-03-11T10:49:55.080Z,98386.66
2023-03-11T10:52:24.087Z,98394.66
2023-03-11T10:55:01.145Z,98417.22
2023-03-11T10:57:38.260Z,98433.31
2023-03-11T11:00:17.472Z,98403.53
2023-03-11T11:03:02.075Z,98405.47
2023-03-11T11:05:33.025Z,98417.53
2023-03-11T11:08:17.228Z,98408.22
2023-03-11T11:10:58.966Z,98397.19
2023-03-11T11:13:35.751Z,98413.50
2023-03-11T11:16:06.223Z,98398.94
2023-03-11T11:18:42.628Z,98412.69
2023-03-11T11:21:12.399Z,98412.63
2023-03-11T11:23:43.747Z,98427.88
2023-03-11T11:26:22.064Z,98415.19
2023-03-11T11:29:10.488Z,98421.13
2023-03-11T11:31:43.077Z,98428.56
2023-03-11T11:34:35.135Z,98427.63
2023-03-11T11:37:06.720Z,98424.22
2023-03-11T11:39:52.903Z,98439.59
2023-03-11T11:42:26.538Z,98435.38
2023-03-11T11:45:27.930Z,98424.38
2023-03-11T11:47:59.367Z,98439.03
2023-03-11T11:50:51.548Z,98419.38
2023-03-11T11:53:36.980Z,98444.00
2023-03-11T11:56:09.467Z,98432.84
2023-03-11T11:58:36.487Z,98446.56
2023-03-11T12:01:17.008Z,98448.09
2023-03-11T12:04:30.385Z,98446.34
2023-03-11T12:07:09.273Z,98442.69
2023-03-11T12:10:03.319Z,98430.03
2023-03-11T12:12:45.281Z,98430.22
2023-03-11T12:15:20.498Z,98414.13
2023-03-11T12:17:54.891Z,98420.13
2023-03-11T12:20:33.388Z,98456.91
2023-03-11T12:23:28.117Z,98432.16
2023-03-11T12:26:21.893Z,98437.25
2023-03-11T12:28:51.772Z,98427.81
2023-03-11T12:31:22.956Z,98444.84
2023-03-11T12:33:58.015Z,98449.97
2023-03-11T12:36:34.389Z,98436.06
2023-03-11T12:39:06.312Z,98469.38
2023-03-11T12:41:40.207Z,98456.59
2023-03-11T12:44:26.635Z,98462.44
2023-03-11T12:46:59.545Z,98451.41
2023-03-11T12:49:30.834Z,98471.72
2023-03-11T12:52:05.387Z,98470.28
2023-03-11T12:54:32.039Z,98477.69
2023-03-11T12:57:08.542Z,98519.38
2023-03-11T12:59:41.299Z,98492.06
2023-03-11T13:02:26.361Z,98512.50
2023-03-11T13:04:56.163Z,98493.66
2023-03-11T13:07:23.023Z,98502.38
2023-03-11T13:10:07.857Z,98527.91
2023-03-11T13:13:00.149Z,98538.28
2023-03-11T13:15:33.092Z,98521.09
2023-03-11T13:17:59.914Z,98534.81
2023-03-11T13:20:41.789Z,98533.03
2023-03-11T13:23:16.894Z,98542.59
2023-03-11T13:25:55.917Z,98523.81
2023-03-11T13:28:44.674Z,98549.25
2023-03-11T13:31:39.905Z,98544.06
2023-03-11T13:34:17.281Z,98552.81
2023-03-11T13:37:16.747Z,98540.91
2023-03-11T13:40:14.320Z,98549.88
2023-03-11T13:42:51.844Z,98559.28
2023-03-11T13:45:28.417Z,98561.97
2023-03-11T13:48:15.307Z,98583.06
2023-03-11T13:50:48.909Z,98582.13
2023-03-11T13:53:27.794Z,98594.19
2023-03-11T13:55:54.656Z,98602.81
2023-03-11T13:58:24.376Z,98600.34
2023-03-11T14:00:56.775Z,98590.97
2023-03-11T14:03:28.010Z,98600.41
2023-03-11T14:06:12.216Z,98649.13
2023-03-11T14:08:44.129Z,98630.19
2023-03-11T14:11:10.794Z,98608.25
2023-03-11T14:13:50.378Z,98630.28
2023-03-11T14:16:24.804Z,98634.34
2023-03-11T14:19:08.884Z,98662.25
2023-03-11T14:21:42.461Z,98650.03
2023-03-11T14:24:26.059Z,98638.56
2023-03-11T14:26:56.457Z,98636.13
2023-03-11T14:29:40.508Z,98648.13
2023-03-11T14:32:30.175Z,98647.22
2023-03-11T14:34:59.579Z,98654.06
2023-03-11T14:37:40.063Z,98639.41
2023-03-11T14:40:37.818Z,98668.25
2023-03-11T14:43:10.902Z,98663.19
2023-03-11T14:45:40.459Z,98659.66
2023-03-11T14:48:12.439Z,98654.69
2023-03-11T14:50:45.093Z,98673.41
2023-03-11T14:53:14.939Z,98675.06
2023-03-11T14:55:55.073Z,98673.38
2023-03-11T14:58:26.140Z,98671.47
2023-03-11T15:01:04.409Z,98678.50
2023-03-11T15:03:41.629Z,98697.94
2023-03-11T15:06:20.544Z,98690.09
2023-03-11T15:08:55.515Z,98707.69
2023-03-11T15:11:25.357Z,98707.72
2023-03-11T15:13:53.447Z,98723.84
2023-03-11T15:16:29.171Z,98744.25
2023-03-11T15:18:59.316Z,98742.56
2023-03-11T15:21:26.155Z,98749.16
2023-03-11T15:24:05.335Z,98741.56
2023-03-11T15:26:54.248Z,98744.22
2023-03-11T15:29:24.929Z,98755.91
2023-03-11T15:31:54.707Z,98751.72
2023-03-11T15:34:25.261Z,98760.25
2023-03-11T15:36:52.995Z,98757.69
2023-03-11T15:39:34.556Z,98761.78
2023-03-11T15:42:04.125Z,98766.00
2023-03-11T15:44:32.770Z,98758.75
2023-03-11T15:47:00.477Z,98763.03
2023-03-11T15:49:34.060Z,98760.69
2023-03-11T15:52:03.515Z,98786.13
2023-03-11T15:54:30.270Z,98767.59
2023-03-11T15:56:58.999Z,98794.75
2023-03-11T15:59:25.957Z,98806.53
2023-03-11T16:01:52.981Z,98802.13
2023-03-11T16:04:21.597Z,98806.38
2023-03-11T16:06:59.636Z,98802.13
2023-03-11T16:09:34.253Z,98824.91
2023-03-11T16:12:01.991Z,98814.78
2023-03-11T16:14:28.697Z,98836.88
2023-03-11T16:16:55.411Z,98842.03
2023-03-11T16:19:22.064Z,98828.97
2023-03-11T16:21:51.849Z,98845.84
2023-03-11T16:24:24.854Z,98845.09
2023-03-11T16:26:54.931Z,98835.59
2023-03-11T16:29:27.143Z,98845.78
2023-03-11T16:31:56.238Z,98844.81
2023-03-11T16:34:25.543Z,98848.13
2023-03-11T16:36:52.057Z,98844.91
2023-03-11T16:39:18.702Z,98844.47
2023-03-11T16:41:47.759Z,98845.25
2023-03-11T16:44:16.728Z,98847.56
2023-03-11T16:46:43.410Z,98860.09
2023-03-11T16:49:12.570Z,98868.78
2023-03-11T16:51:41.761Z,98881.00
2023-03-11T16:54:08.359Z,98903.56
2023-03-11T16:56:41.714Z,98911.84
2023-03-11T16:59:08.659Z,98909.44
2023-03-11T17:01:38.685Z,98914.41
2023-03-11T17:04:08.675Z,98922.25
2023-03-11T17:06:35.429Z,98925.78
2023-03-11T17:09:04.512Z,98927.28
2023-03-11T17:11:34.669Z,98932.09
2023-03-11T17:14:15.558Z,98939.72
2023-03-11T17:16:43.284Z,98943.78
2023-03-11T17:19:10.120Z,98941.50
2023-03-11T17:21:38.999Z,98948.97
2023-03-11T17:24:06.183Z,98955.72
2023-03-11T17:26:37.550Z,98964.19
2023-03-11T17:29:06.578Z,98966.00
2023-03-11T17:31:33.352Z,98979.09
2023-03-11T17:34:03.167Z,98992.13
2023-03-11T17:36:29.878Z,99000.03
2023-03-11T17:38:56.647Z,98994.66
2023-03-11T17:41:23.762Z,99010.03
2023-03-11T17:43:51.615Z,99016.88
2023-03-11T17:46:22.663Z,99024.97
2023-03-11T17:48:53.115Z,99013.69
2023-03-11T17:51:23.010Z,99016.72
2023-03-11T17:53:50.861Z,99021.47
2023-03-11T17:56:21.623Z,99019.75
2023-03-11T17:58:54.612Z,99021.16
2023-03-11T18:01:23.673Z,99037.91
2023-03-11T18:03:56.375Z,99034.69
2023-03-11T18:06:26.298Z,99047.13
2023-03-11T18:08:53.112Z,99045.78
2023-03-11T18:11:24.953Z,99041.50
2023-03-11T18:13:52.265Z,99054.78
2023-03-11T18:16:28.573Z,99049.47
2023-03-11T18:19:00.509Z,99056.59
2023-03-11T18:21:30.260Z,99061.69
2023-03-11T18:24:03.209Z,99061.16
2023-03-11T18:26:30.664Z,99071.78
2023-03-11T18:29:01.233Z,99063.13
2023-03-11T18:31:30.504Z,99086.09
2023-03-11T18:33:59.109Z,99078.50
2023-03-11T18:36:37.549Z,99077.41
2023-03-11T18:39:04.974Z,99083.59
2023-03-11T18:41:34.242Z,99089.69
2023-03-11T18:44:02.908Z,99093.50
2023-03-11T18:46:32.906Z,99108.31
2023-03-11T18:49:05.959Z,99110.47
2023-03-11T18:51:33.428Z,99112.66
2023-03-11T18:54:07.074Z,99122.41
2023-03-11T18:56:36.585Z,99119.28
2023-03-11T18:59:05.564Z,99117.00
2023-03-11T19:01:34.818Z,99124.63
2023-03-11T19:04:03.942Z,99126.44
2023-03-11T19:06:33.183Z,99132.00
2023-03-11T19:09:02.218Z,99147.91
2023-03-11T19:11:34.353Z,99151.84
2023-03-11T19:14:03.355Z,99156.75
2023-03-11T19:16:30.169Z,99152.47
2023-03-11T19:19:00.426Z,99147.31
2023-03-11T19:21:29.575Z,99148.22
2023-03-11T19:24:00.157Z,99158.00
2023-03-11T19:26:43.859Z,99157.28
2023-03-11T19:29:11.753Z,99157.19
2023-03-11T19:31:38.464Z,99152.59
2023-03-11T19:34:05.137Z,99159.03
2023-03-11T19:36:31.845Z,99151.28
2023-03-11T19:39:00.874Z,99149.06
2023-03-11T19:41:30.361Z,99158.56
2023-03-11T19:43:57.102Z,99162.97
2023-03-11T19:46:23.960Z,99169.38
2023-03-11T19:48:56.719Z,99159.16
2023-03-11T19:51:25.313Z,99157.16
2023-03-11T19:53:53.359Z,99169.19
2023-03-11T19:56:20.028Z,99181.78
2023-03-11T19:58:50.098Z,99182.19
2023-03-11T20:01:28.399Z,99192.16
2023-03-11T20:03:59.817Z,99180.53
2023-03-11T20:06:26.682Z,99184.53
2023-03-11T20:08:55.972Z,99184.00
2023-03-11T20:11:22.899Z,99181.47
2023-03-11T20:13:54.534Z,99175.47
2023-03-11T20:16:23.409Z,99170.00
2023-03-11T20:18:53.553Z,99155.59
2023-03-11T20:21:20.184Z,99162.25
2023-03-11T20:23:49.014Z,99156.31
2023-03-11T20:26:20.994Z,99151.13
2023-03-11T20:28:47.756Z,99140.84
2023-03-11T20:31:18.401Z,99145.09
2023-03-11T20:33:45.760Z,99141.53
2023-03-11T20:36:15.420Z,99138.16
2023-03-11T20:38:42.302Z,99161.53
2023-03-11T20:41:10.202Z,99146.50
2023-03-11T20:43:40.691Z,99161.47
2023-03-11T20:46:09.043Z,99159.22
2023-03-11T20:48:37.131Z,99161.81
2023-03-11T20:51:20.551Z,99159.88
2023-03-11T20:53:51.023Z,99174.97
2023-03-11T20:56:21.316Z,99173.75
2023-03-11T20:58:51.210Z,99174.41
2023-03-11T21:01:21.876Z,99193.22
2023-03-11T21:03:52.376Z,99193.31
2023-03-11T21:06:27.480Z,99188.47
2023-03-11T21:08:55.586Z,99192.41
2023-03-11T21:11:24.048Z,99188.34
2023-03-11T21:13:54.555Z,99184.13
2023-03-11T21:16:24.122Z,99187.91
2023-03-11T21:18:50.860Z,99190.00
2023-03-11T21:21:22.878Z,99193.41
2023-03-11T21:23:56.997Z,99197.13
2023-03-11T21:26:31.019Z,99215.00
2023-03-11T21:28:58.282Z,99207.84
2023-03-11T21:31:28.551Z,99218.09
2023-03-11T21:33:57.773Z,99228.50
2023-03-11T21:36:24.631Z,99231.69
2023-03-11T21:38:54.877Z,99238.63
2023-03-11T21:41:29.864Z,99244.97
2023-03-11T21:43:57.668Z,99234.81
2023-03-11T21:46:27.435Z,99242.91
2023-03-11T21:48:57.116Z,99247.44
2023-03-11T21:51:24.603Z,99251.41
2023-03-11T21:53:54.968Z,99255.88
2023-03-11T21:56:26.704Z,99258.16
2023-03-11T21:58:55.582Z,99259.34
2023-03-11T22:01:22.423Z,99258.09
2023-03-11T22:03:51.468Z,99251.16
2023-03-11T22:06:18.240Z,99242.66
2023-03-11T22:08:45.017Z,99259.03
2023-03-11T22:11:18.509Z,99256.75
2023-03-11T22:13:46.973Z,99259.22
2023-03-11T22:16:13.840Z,99276.88
2023-03-11T22:18:40.804Z,99277.31
2023-03-11T22:21:15.259Z,99281.47
2023-03-11T22:23:42.981Z,99282.69
2023-03-11T22:26:12.308Z,99288.16
2023-03-11T22:28:38.973Z,99291.38
2023-03-11T22:31:10.769Z,99302.56
2023-03-11T22:33:40.112Z,99300.59
2023-03-11T22:36:09.586Z,99312.25
2023-03-11T22:38:41.836Z,99311.03
2023-03-11T22:41:08.922Z,99311.38
2023-03-11T22:43:38.910Z,99324.88
2023-03-11T22:46:08.179Z,99314.97
2023-03-11T22:48:37.337Z,99318.88
2023-03-11T22:51:04.938Z,99322.75
2023-03-11T22:53:31.618Z,99328.03
2023-03-11T22:55:58.508Z,99330.56
2023-03-11T22:58:27.986Z,99339.84
2023-03-11T23:00:55.008Z,99354.66
2023-03-11T23:03:24.120Z,99359.06
2023-03-11T23:05:54.010Z,99346.56
2023-03-11T23:08:20.707Z,99342.28
2023-03-11T23:10:49.861Z,99356.97
2023-03-11T23:13:16.830Z,99357.72
2023-03-11T23:15:48.269Z,99351.91
2023-03-11T23:18:17.539Z,99358.31
2023-03-11T23:20:49.552Z,99344.56
2023-03-11T23:23:19.070Z,99357.28
2023-03-11T23:25:45.762Z,99356.31
2023-03-11T23:28:14.924Z,99352.56
2023-03-11T23:30:41.615Z,99353.09
2023-03-11T23:33:11.068Z,99355.44
2023-03-11T23:35:41.900Z,99358.16
2023-03-11T23:38:09.321Z,99356.16
2023-03-11T23:40:35.986Z,99365.22
2023-03-11T23:43:02.829Z,99386.91
2023-03-11T23:45:32.281Z,99375.63
2023-03-11T23:48:03.820Z,99375.34
2023-03-11T23:50:30.532Z,99381.63
2023-03-11T23:52:57.206Z,99391.88
2023-03-11T23:55:26.256Z,99389.72
2023-03-11T23:57:55.233Z,99393.59
